createdAt,value
2019-03-29T00:01:00.408Z,1026.41
2019-03-29T00:02:01.794Z,1026.41
2019-03-29T00:03:03.186Z,1026.41
2019-03-29T00:04:04.572Z,1026.42
2019-03-29T00:05:06.683Z,1026.37
2019-03-29T00:06:08.073Z,1026.42
2019-03-29T00:07:09.457Z,1026.39
2019-03-29T00:08:10.860Z,1026.38
2019-03-29T00:09:12.244Z,1026.31
2019-03-29T00:10:13.663Z,1026.30
2019-03-29T00:11:15.073Z,1026.25
2019-03-29T00:12:16.461Z,1026.30
2019-03-29T00:13:17.837Z,1026.25
2019-03-29T00:14:19.235Z,1026.25
2019-03-29T00:15:20.631Z,1026.27
2019-03-29T00:16:22.013Z,1026.24
2019-03-29T00:17:23.434Z,1026.22
2019-03-29T00:18:24.850Z,1026.24
2019-03-29T00:19:26.246Z,1026.21
2019-03-29T00:20:27.651Z,1026.20
2019-03-29T00:21:29.992Z,1026.13
2019-03-29T00:22:31.376Z,1026.16
2019-03-29T00:23:32.760Z,1026.15
2019-03-29T00:24:34.150Z,1026.19
2019-03-29T00:25:35.538Z,1026.14
2019-03-29T00:26:37.018Z,1026.09
2019-03-29T00:27:38.270Z,1026.14
2019-03-29T00:28:39.685Z,1026.15
2019-03-29T00:29:41.056Z,1026.15
2019-03-29T00:30:42.451Z,1026.14
2019-03-29T00:31:43.844Z,1026.15
2019-03-29T00:32:45.235Z,1026.20
2019-03-29T00:33:46.683Z,1026.22
2019-03-29T00:34:48.102Z,1026.18
2019-03-29T00:35:49.488Z,1026.23
2019-03-29T00:36:51.850Z,1026.22
2019-03-29T00:37:53.868Z,1026.20
2019-03-29T00:38:53.600Z,1026.20
2019-03-29T00:39:55.021Z,1026.21
2019-03-29T00:40:56.414Z,1026.20
2019-03-29T00:41:57.821Z,1026.19
2019-03-29T00:42:59.205Z,1026.20
2019-03-29T00:44:01.072Z,1026.14
2019-03-29T00:45:01.960Z,1026.13
2019-03-29T00:46:03.353Z,1026.10
2019-03-29T00:47:04.753Z,1026.12
2019-03-29T00:48:06.158Z,1026.10
2019-03-29T00:49:07.553Z,1026.09
2019-03-29T00:50:08.942Z,1026.10
2019-03-29T00:51:10.328Z,1026.09
2019-03-29T00:52:11.716Z,1026.10
2019-03-29T00:53:13.924Z,1026.06
2019-03-29T00:54:15.306Z,1026.03
2019-03-29T00:55:16.712Z,1026.04
2019-03-29T00:56:18.099Z,1025.99
2019-03-29T00:57:19.488Z,1025.99
2019-03-29T00:58:20.877Z,1026.00
2019-03-29T00:59:22.258Z,1026.02
2019-03-29T01:00:23.636Z,1025.98
2019-03-29T01:01:26.022Z,1025.97
2019-03-29T01:02:26.373Z,1025.95
2019-03-29T01:03:27.771Z,1025.97
2019-03-29T01:04:29.318Z,1025.99
2019-03-29T01:05:30.499Z,1025.99
2019-03-29T01:06:31.887Z,1026.00
2019-03-29T01:07:33.278Z,1025.99
2019-03-29T01:08:34.660Z,1026.00
2019-03-29T01:09:36.045Z,1026.01
2019-03-29T01:10:37.430Z,1025.98
2019-03-29T01:11:38.832Z,1025.98
2019-03-29T01:12:40.231Z,1025.97
2019-03-29T01:13:41.601Z,1026.01
2019-03-29T01:14:43.188Z,1025.99
2019-03-29T01:15:44.355Z,1026.03
2019-03-29T01:16:45.738Z,1025.97
2019-03-29T01:17:47.178Z,1025.95
2019-03-29T01:18:48.567Z,1025.97
2019-03-29T01:19:49.967Z,1025.95
2019-03-29T01:20:51.393Z,1025.96
2019-03-29T01:21:52.781Z,1025.92
2019-03-29T01:22:54.182Z,1025.95
2019-03-29T01:23:55.576Z,1025.95
2019-03-29T01:24:56.985Z,1025.95
2019-03-29T01:25:58.390Z,1025.94
2019-03-29T01:26:59.779Z,1025.94
2019-03-29T01:28:01.182Z,1025.92
2019-03-29T01:29:02.574Z,1025.86
2019-03-29T01:30:03.964Z,1025.88
2019-03-29T01:31:05.356Z,1025.88
2019-03-29T01:32:07.108Z,1025.90
2019-03-29T01:33:08.149Z,1025.91
2019-03-29T01:34:09.548Z,1025.85
2019-03-29T01:35:10.936Z,1025.91
2019-03-29T01:36:12.323Z,1025.92
2019-03-29T01:37:13.722Z,1025.86
2019-03-29T01:38:21.713Z,1025.88
2019-03-29T01:39:16.981Z,1025.83
2019-03-29T01:40:18.540Z,1025.87
2019-03-29T01:41:19.930Z,1025.89
2019-03-29T01:42:21.321Z,1025.85
2019-03-29T01:43:22.710Z,1025.84
2019-03-29T01:44:24.104Z,1025.86
2019-03-29T01:45:25.498Z,1025.83
2019-03-29T01:46:26.883Z,1025.85
2019-03-29T01:47:28.301Z,1025.86
2019-03-29T01:48:29.666Z,1025.82
2019-03-29T01:49:31.046Z,1025.84
2019-03-29T01:50:32.430Z,1025.85
2019-03-29T01:51:33.818Z,1025.84
2019-03-29T01:52:35.237Z,1025.82
2019-03-29T01:53:37.270Z,1025.77
2019-03-29T01:54:37.951Z,1025.76
2019-03-29T01:55:39.350Z,1025.76
2019-03-29T01:56:41.414Z,1025.73
2019-03-29T01:57:42.809Z,1025.74
2019-03-29T01:58:44.205Z,1025.75
2019-03-29T01:59:45.603Z,1025.78
2019-03-29T02:00:46.992Z,1025.78
2019-03-29T02:01:48.372Z,1025.76
2019-03-29T02:02:49.779Z,1025.73
2019-03-29T02:03:51.165Z,1025.75
2019-03-29T02:04:52.553Z,1025.72
2019-03-29T02:05:53.955Z,1025.70
2019-03-29T02:06:55.278Z,1025.69
2019-03-29T02:07:56.729Z,1025.73
2019-03-29T02:08:58.118Z,1025.71
2019-03-29T02:09:59.513Z,1025.67
2019-03-29T02:11:00.901Z,1025.69
2019-03-29T02:12:02.298Z,1025.67
2019-03-29T02:13:03.706Z,1025.70
2019-03-29T02:14:05.106Z,1025.68
2019-03-29T02:15:06.484Z,1025.70
2019-03-29T02:16:07.884Z,1025.68
2019-03-29T02:17:09.288Z,1025.70
2019-03-29T02:18:10.675Z,1025.72
2019-03-29T02:19:12.077Z,1025.73
2019-03-29T02:20:13.468Z,1025.76
2019-03-29T02:21:14.860Z,1025.76
2019-03-29T02:22:16.251Z,1025.76
2019-03-29T02:23:17.633Z,1025.74
2019-03-29T02:24:19.038Z,1025.74
2019-03-29T02:25:20.425Z,1025.74
2019-03-29T02:26:21.810Z,1025.71
2019-03-29T02:27:23.209Z,1025.72
2019-03-29T02:28:24.599Z,1025.78
2019-03-29T02:29:25.983Z,1025.72
2019-03-29T02:30:27.376Z,1025.69
2019-03-29T02:31:29.062Z,1025.73
2019-03-29T02:32:30.138Z,1025.74
2019-03-29T02:33:31.534Z,1025.74
2019-03-29T02:34:32.922Z,1025.76
2019-03-29T02:35:34.311Z,1025.73
2019-03-29T02:36:35.721Z,1025.72
2019-03-29T02:37:37.110Z,1025.77
2019-03-29T02:38:54.262Z,1025.73
2019-03-29T02:39:39.883Z,1025.74
2019-03-29T02:40:41.268Z,1025.67
2019-03-29T02:41:42.657Z,1025.73
2019-03-29T02:42:44.039Z,1025.69
2019-03-29T02:43:45.437Z,1025.70
2019-03-29T02:44:46.829Z,1025.67
2019-03-29T02:45:48.199Z,1025.69
2019-03-29T02:46:49.597Z,1025.70
2019-03-29T02:47:51.006Z,1025.71
2019-03-29T02:48:52.360Z,1025.74
2019-03-29T02:49:53.746Z,1025.71
2019-03-29T02:50:55.139Z,1025.74
2019-03-29T02:51:56.516Z,1025.71
2019-03-29T02:52:57.897Z,1025.73
2019-03-29T02:53:59.282Z,1025.71
2019-03-29T02:55:00.734Z,1025.70
2019-03-29T02:56:02.017Z,1025.73
2019-03-29T02:57:03.397Z,1025.74
2019-03-29T02:58:04.784Z,1025.72
2019-03-29T02:59:06.176Z,1025.69
2019-03-29T03:00:07.569Z,1025.70
2019-03-29T03:01:08.956Z,1025.70
2019-03-29T03:02:10.335Z,1025.69
2019-03-29T03:03:11.722Z,1025.67
2019-03-29T03:04:13.111Z,1025.71
2019-03-29T03:05:14.499Z,1025.73
2019-03-29T03:06:15.888Z,1025.72
2019-03-29T03:07:17.273Z,1025.74
2019-03-29T03:08:18.663Z,1025.77
2019-03-29T03:09:20.057Z,1025.75
2019-03-29T03:10:21.437Z,1025.75
2019-03-29T03:11:22.831Z,1025.78
2019-03-29T03:12:24.227Z,1025.74
2019-03-29T03:13:25.607Z,1025.77
2019-03-29T03:14:26.978Z,1025.71
2019-03-29T03:15:28.897Z,1025.73
2019-03-29T03:16:29.713Z,1025.72
2019-03-29T03:17:31.099Z,1025.74
2019-03-29T03:18:32.485Z,1025.72
2019-03-29T03:19:33.876Z,1025.76
2019-03-29T03:20:35.253Z,1025.74
2019-03-29T03:21:36.642Z,1025.75
2019-03-29T03:22:38.030Z,1025.75
2019-03-29T03:23:39.413Z,1025.77
2019-03-29T03:24:40.813Z,1025.73
2019-03-29T03:25:42.191Z,1025.76
2019-03-29T03:26:43.574Z,1025.75
2019-03-29T03:27:44.982Z,1025.73
2019-03-29T03:28:46.361Z,1025.72
2019-03-29T03:29:48.360Z,1025.76
2019-03-29T03:30:49.134Z,1025.73
2019-03-29T03:31:50.476Z,1025.71
2019-03-29T03:32:51.892Z,1025.72
2019-03-29T03:33:53.296Z,1025.72
2019-03-29T03:34:54.651Z,1025.71
2019-03-29T03:35:56.029Z,1025.74
2019-03-29T03:36:57.424Z,1025.76
2019-03-29T03:37:58.819Z,1025.73
2019-03-29T03:39:00.196Z,1025.71
2019-03-29T03:40:01.585Z,1025.72
2019-03-29T03:41:02.980Z,1025.75
2019-03-29T03:42:04.366Z,1025.72
2019-03-29T03:43:05.749Z,1025.75
2019-03-29T03:44:07.135Z,1025.75
2019-03-29T03:45:08.520Z,1025.75
2019-03-29T03:46:09.914Z,1025.73
2019-03-29T03:47:11.382Z,1025.78
2019-03-29T03:48:12.761Z,1025.77
2019-03-29T03:49:14.174Z,1025.78
2019-03-29T03:50:15.535Z,1025.77
2019-03-29T03:51:16.925Z,1025.77
2019-03-29T03:52:18.315Z,1025.77
2019-03-29T03:53:19.702Z,1025.76
2019-03-29T03:54:21.105Z,1025.81
2019-03-29T03:55:22.487Z,1025.78
2019-03-29T03:56:23.875Z,1025.75
2019-03-29T03:57:25.266Z,1025.79
2019-03-29T03:58:26.658Z,1025.75
2019-03-29T03:59:28.040Z,1025.76
2019-03-29T04:00:29.442Z,1025.79
2019-03-29T04:01:30.815Z,1025.79
2019-03-29T04:02:32.207Z,1025.82
2019-03-29T04:03:33.586Z,1025.82
2019-03-29T04:04:37.695Z,1025.80
2019-03-29T04:05:36.330Z,1025.83
2019-03-29T04:06:37.730Z,1025.81
2019-03-29T04:07:39.110Z,1025.79
2019-03-29T04:08:40.494Z,1025.86
2019-03-29T04:09:49.284Z,1025.86
2019-03-29T04:10:43.251Z,1025.84
2019-03-29T04:11:44.642Z,1025.85
2019-03-29T04:12:46.038Z,1025.87
2019-03-29T04:13:47.423Z,1025.88
2019-03-29T04:14:48.828Z,1025.87
2019-03-29T04:15:50.202Z,1025.91
2019-03-29T04:16:51.583Z,1025.92
2019-03-29T04:17:52.981Z,1025.89
2019-03-29T04:18:54.362Z,1025.89
2019-03-29T04:19:55.775Z,1025.91
2019-03-29T04:20:57.158Z,1025.87
2019-03-29T04:21:58.539Z,1025.85
2019-03-29T04:22:59.931Z,1025.88
2019-03-29T04:24:01.324Z,1025.86
2019-03-29T04:25:02.716Z,1025.80
2019-03-29T04:26:04.107Z,1025.82
2019-03-29T04:27:05.497Z,1025.81
2019-03-29T04:28:06.882Z,1025.82
2019-03-29T04:29:08.277Z,1025.77
2019-03-29T04:30:09.654Z,1025.78
2019-03-29T04:31:11.043Z,1025.74
2019-03-29T04:32:12.433Z,1025.75
2019-03-29T04:33:13.824Z,1025.75
2019-03-29T04:34:15.207Z,1025.77
2019-03-29T04:35:16.617Z,1025.75
2019-03-29T04:36:18.001Z,1025.79
2019-03-29T04:37:19.392Z,1025.77
2019-03-29T04:38:20.787Z,1025.79
2019-03-29T04:39:22.170Z,1025.81
2019-03-29T04:40:23.578Z,1025.82
2019-03-29T04:41:24.955Z,1025.83
2019-03-29T04:42:26.357Z,1025.84
2019-03-29T04:43:27.747Z,1025.80
2019-03-29T04:44:29.133Z,1025.80
2019-03-29T04:45:30.525Z,1025.84
2019-03-29T04:46:31.908Z,1025.78
2019-03-29T04:47:33.303Z,1025.77
2019-03-29T04:48:34.693Z,1025.81
2019-03-29T04:49:36.075Z,1025.82
2019-03-29T04:50:37.463Z,1025.85
2019-03-29T04:51:38.855Z,1025.87
2019-03-29T04:52:40.251Z,1025.86
2019-03-29T04:53:41.633Z,1025.86
2019-03-29T04:54:43.020Z,1025.87
2019-03-29T04:55:44.411Z,1025.89
2019-03-29T04:56:45.808Z,1025.90
2019-03-29T04:57:47.206Z,1025.91
2019-03-29T04:58:48.693Z,1025.91
2019-03-29T04:59:49.950Z,1025.89
2019-03-29T05:00:51.338Z,1025.88
2019-03-29T05:01:52.733Z,1025.89
2019-03-29T05:02:54.124Z,1025.90
2019-03-29T05:03:55.512Z,1025.89
2019-03-29T05:04:56.904Z,1025.89
2019-03-29T05:05:58.290Z,1025.92
2019-03-29T05:06:59.682Z,1025.93
2019-03-29T05:08:01.078Z,1025.92
2019-03-29T05:09:02.470Z,1025.90
2019-03-29T05:10:03.868Z,1025.90
2019-03-29T05:11:05.257Z,1025.92
2019-03-29T05:12:06.671Z,1025.94
2019-03-29T05:13:08.051Z,1025.91
2019-03-29T05:14:09.477Z,1025.94
2019-03-29T05:15:10.863Z,1025.95
2019-03-29T05:16:12.253Z,1025.93
2019-03-29T05:17:13.643Z,1025.96
2019-03-29T05:18:15.038Z,1025.95
2019-03-29T05:19:16.437Z,1025.92
2019-03-29T05:20:17.811Z,1025.90
2019-03-29T05:21:19.209Z,1025.89
2019-03-29T05:22:20.599Z,1025.93
2019-03-29T05:23:21.987Z,1025.94
2019-03-29T05:24:23.389Z,1025.92
2019-03-29T05:25:24.775Z,1025.91
2019-03-29T05:26:26.168Z,1025.91
2019-03-29T05:27:27.554Z,1025.94
2019-03-29T05:28:28.946Z,1025.95
2019-03-29T05:29:30.336Z,1025.93
2019-03-29T05:30:31.731Z,1025.92
2019-03-29T05:31:33.125Z,1025.96
2019-03-29T05:32:34.520Z,1025.93
2019-03-29T05:33:35.911Z,1025.94
2019-03-29T05:34:37.297Z,1025.90
2019-03-29T05:35:38.691Z,1025.92
2019-03-29T05:36:40.080Z,1025.97
2019-03-29T05:37:41.474Z,1025.94
2019-03-29T05:38:42.866Z,1025.91
2019-03-29T05:39:44.254Z,1025.95
2019-03-29T05:40:45.653Z,1025.98
2019-03-29T05:41:47.045Z,1025.96
2019-03-29T05:42:48.442Z,1025.96
2019-03-29T05:43:49.833Z,1025.99
2019-03-29T05:44:51.347Z,1025.95
2019-03-29T05:45:52.737Z,1025.93
2019-03-29T05:46:54.124Z,1025.92
2019-03-29T05:47:56.119Z,1025.93
2019-03-29T05:48:57.510Z,1025.93
2019-03-29T05:49:58.902Z,1025.93
2019-03-29T05:51:00.296Z,1025.94
2019-03-29T05:52:01.691Z,1025.92
2019-03-29T05:53:03.077Z,1025.91
2019-03-29T05:54:04.468Z,1025.93
2019-03-29T05:55:05.862Z,1025.94
2019-03-29T05:56:07.251Z,1025.93
2019-03-29T05:57:08.648Z,1025.93
2019-03-29T05:58:10.034Z,1025.94
2019-03-29T05:59:11.428Z,1025.93
2019-03-29T06:00:12.817Z,1025.96
2019-03-29T06:01:14.206Z,1025.93
2019-03-29T06:02:15.596Z,1025.94
2019-03-29T06:03:16.994Z,1025.93
2019-03-29T06:04:18.380Z,1025.90
2019-03-29T06:05:19.769Z,1025.93
2019-03-29T06:06:21.156Z,1025.89
2019-03-29T06:07:22.553Z,1025.90
2019-03-29T06:08:23.948Z,1025.89
2019-03-29T06:09:25.342Z,1025.90
2019-03-29T06:10:26.735Z,1025.90
2019-03-29T06:11:28.126Z,1025.87
2019-03-29T06:12:29.516Z,1025.84
2019-03-29T06:13:30.917Z,1025.81
2019-03-29T06:14:32.307Z,1025.80
2019-03-29T06:15:33.701Z,1025.85
2019-03-29T06:16:39.166Z,1025.85
2019-03-29T06:17:48.062Z,1025.85
2019-03-29T06:18:37.809Z,1025.85
2019-03-29T06:19:39.202Z,1025.86
2019-03-29T06:20:40.592Z,1025.84
2019-03-29T06:21:41.987Z,1025.86
2019-03-29T06:22:43.378Z,1025.87
2019-03-29T06:23:44.765Z,1025.87
2019-03-29T06:24:46.158Z,1025.89
2019-03-29T06:25:47.552Z,1025.88
2019-03-29T06:26:48.946Z,1025.89
2019-03-29T06:27:50.332Z,1025.89
2019-03-29T06:28:51.716Z,1025.89
2019-03-29T06:29:53.110Z,1025.90
2019-03-29T06:30:54.502Z,1025.87
2019-03-29T06:31:55.887Z,1025.85
2019-03-29T06:32:57.278Z,1025.88
2019-03-29T06:33:58.677Z,1025.85
2019-03-29T06:35:00.062Z,1025.84
2019-03-29T06:36:01.456Z,1025.84
2019-03-29T06:37:02.853Z,1025.80
2019-03-29T06:38:04.238Z,1025.80
2019-03-29T06:39:05.646Z,1025.82
2019-03-29T06:40:07.062Z,1025.84
2019-03-29T06:41:08.474Z,1025.85
2019-03-29T06:42:09.879Z,1025.85
2019-03-29T06:43:11.259Z,1025.85
2019-03-29T06:44:12.657Z,1025.84
2019-03-29T06:45:14.049Z,1025.83
2019-03-29T06:46:15.447Z,1025.81
2019-03-29T06:47:16.800Z,1025.87
2019-03-29T06:48:18.192Z,1025.87
2019-03-29T06:49:19.577Z,1025.86
2019-03-29T06:50:20.976Z,1025.84
2019-03-29T06:51:23.197Z,1025.79
2019-03-29T06:52:24.595Z,1025.77
2019-03-29T06:53:25.983Z,1025.78
2019-03-29T06:54:27.409Z,1025.78
2019-03-29T06:55:28.796Z,1025.78
2019-03-29T06:56:30.190Z,1025.77
2019-03-29T06:57:31.588Z,1025.76
2019-03-29T06:58:32.978Z,1025.76
2019-03-29T06:59:34.378Z,1025.75
2019-03-29T07:00:35.768Z,1025.78
2019-03-29T07:01:37.164Z,1025.75
2019-03-29T07:02:38.563Z,1025.73
2019-03-29T07:03:39.951Z,1025.75
2019-03-29T07:04:41.345Z,1025.70
2019-03-29T07:05:42.745Z,1025.70
2019-03-29T07:06:44.145Z,1025.75
2019-03-29T07:07:45.603Z,1025.74
2019-03-29T07:08:46.935Z,1025.78
2019-03-29T07:09:48.324Z,1025.76
2019-03-29T07:10:49.715Z,1025.80
2019-03-29T07:11:51.107Z,1025.81
2019-03-29T07:12:52.533Z,1025.78
2019-03-29T07:13:57.608Z,1025.79
2019-03-29T07:14:55.290Z,1025.84
2019-03-29T07:15:56.679Z,1025.81
2019-03-29T07:16:58.071Z,1025.81
2019-03-29T07:17:59.462Z,1025.79
2019-03-29T07:19:00.870Z,1025.80
2019-03-29T07:20:02.258Z,1025.83
2019-03-29T07:21:03.647Z,1025.83
2019-03-29T07:22:05.058Z,1025.84
2019-03-29T07:23:06.452Z,1025.84
2019-03-29T07:24:07.854Z,1025.85
2019-03-29T07:25:09.248Z,1025.89
2019-03-29T07:26:10.649Z,1025.89
2019-03-29T07:27:12.034Z,1025.88
2019-03-29T07:28:13.434Z,1025.91
2019-03-29T07:29:14.854Z,1025.90
2019-03-29T07:30:16.240Z,1025.91
2019-03-29T07:31:17.634Z,1025.92
2019-03-29T07:32:19.028Z,1025.91
2019-03-29T07:33:20.473Z,1025.88
2019-03-29T07:34:21.846Z,1025.84
2019-03-29T07:35:23.234Z,1025.84
2019-03-29T07:36:24.602Z,1025.86
2019-03-29T07:37:25.979Z,1025.85
2019-03-29T07:38:27.379Z,1025.84
2019-03-29T07:39:28.782Z,1025.87
2019-03-29T07:40:30.179Z,1025.85
2019-03-29T07:41:32.537Z,1025.84
2019-03-29T07:42:32.945Z,1025.86
2019-03-29T07:43:34.332Z,1025.86
2019-03-29T07:44:35.746Z,1025.84
2019-03-29T07:45:37.111Z,1025.86
2019-03-29T07:46:38.501Z,1025.85
2019-03-29T07:47:39.894Z,1025.88
2019-03-29T07:48:41.295Z,1025.93
2019-03-29T07:49:42.725Z,1025.90
2019-03-29T07:50:44.219Z,1025.91
2019-03-29T07:51:45.614Z,1025.88
2019-03-29T07:52:47.018Z,1025.88
2019-03-29T07:53:48.413Z,1025.89
2019-03-29T07:54:49.812Z,1025.87
2019-03-29T07:55:51.207Z,1025.88
2019-03-29T07:56:52.594Z,1025.86
2019-03-29T07:57:54.000Z,1025.90
2019-03-29T07:58:55.394Z,1025.89
2019-03-29T07:59:56.795Z,1025.86
2019-03-29T08:00:58.183Z,1025.90
2019-03-29T08:01:59.580Z,1025.91
2019-03-29T08:03:00.976Z,1025.91
2019-03-29T08:04:02.384Z,1025.95
2019-03-29T08:05:03.772Z,1025.96
2019-03-29T08:06:05.165Z,1025.97
2019-03-29T08:07:06.652Z,1025.93
2019-03-29T08:08:07.910Z,1025.93
2019-03-29T08:09:21.806Z,1025.94
2019-03-29T08:10:18.899Z,1025.91
2019-03-29T08:11:25.207Z,1025.92
2019-03-29T08:12:13.380Z,1025.85
2019-03-29T08:13:16.038Z,1025.86
2019-03-29T08:14:16.130Z,1025.85
2019-03-29T08:15:17.518Z,1025.88
2019-03-29T08:16:18.915Z,1025.86
2019-03-29T08:17:20.309Z,1025.84
2019-03-29T08:18:21.693Z,1025.83
2019-03-29T08:19:23.091Z,1025.85
2019-03-29T08:20:39.306Z,1025.83
2019-03-29T08:21:26.003Z,1025.86
2019-03-29T08:22:27.476Z,1025.80
2019-03-29T08:23:29.025Z,1025.83
2019-03-29T08:24:30.175Z,1025.83
2019-03-29T08:25:31.565Z,1025.87
2019-03-29T08:26:32.990Z,1025.88
2019-03-29T08:27:34.379Z,1025.88
2019-03-29T08:28:35.767Z,1025.87
2019-03-29T08:29:37.160Z,1025.90
2019-03-29T08:30:38.576Z,1025.88
2019-03-29T08:31:39.943Z,1025.84
2019-03-29T08:32:41.335Z,1025.82
2019-03-29T08:33:42.739Z,1025.83
2019-03-29T08:34:44.131Z,1025.83
2019-03-29T08:35:45.523Z,1025.84
2019-03-29T08:36:46.919Z,1025.86
2019-03-29T08:37:48.305Z,1025.88
2019-03-29T08:38:49.703Z,1025.83
2019-03-29T08:39:51.092Z,1025.84
2019-03-29T08:40:52.488Z,1025.84
2019-03-29T08:41:59.936Z,1025.85
2019-03-29T08:42:55.237Z,1025.88
2019-03-29T08:43:56.628Z,1025.88
2019-03-29T08:44:58.025Z,1025.86
2019-03-29T08:45:59.412Z,1025.84
2019-03-29T08:47:00.802Z,1025.84
2019-03-29T08:48:02.463Z,1025.82
2019-03-29T08:49:03.555Z,1025.89
2019-03-29T08:50:04.946Z,1025.86
2019-03-29T08:51:06.336Z,1025.84
2019-03-29T08:52:07.725Z,1025.84
2019-03-29T08:53:09.123Z,1025.81
2019-03-29T08:54:10.515Z,1025.83
2019-03-29T08:55:11.904Z,1025.80
2019-03-29T08:56:13.303Z,1025.82
2019-03-29T08:57:14.704Z,1025.86
2019-03-29T08:58:16.094Z,1025.82
2019-03-29T08:59:17.848Z,1025.84
2019-03-29T09:00:18.848Z,1025.84
2019-03-29T09:01:20.250Z,1025.80
2019-03-29T09:02:24.766Z,1025.77
2019-03-29T09:03:22.999Z,1025.80
2019-03-29T09:04:24.399Z,1025.81
2019-03-29T09:05:25.781Z,1025.76
2019-03-29T09:06:29.980Z,1025.75
2019-03-29T09:07:28.527Z,1025.76
2019-03-29T09:08:29.920Z,1025.72
2019-03-29T09:09:31.323Z,1025.76
2019-03-29T09:10:32.725Z,1025.74
2019-03-29T09:11:34.114Z,1025.74
2019-03-29T09:12:35.512Z,1025.75
2019-03-29T09:13:36.908Z,1025.79
2019-03-29T09:14:38.294Z,1025.77
2019-03-29T09:15:39.684Z,1025.78
2019-03-29T09:16:41.078Z,1025.79
2019-03-29T09:17:42.474Z,1025.77
2019-03-29T09:18:43.862Z,1025.85
2019-03-29T09:19:45.260Z,1025.76
2019-03-29T09:20:46.650Z,1025.75
2019-03-29T09:21:48.054Z,1025.77
2019-03-29T09:22:49.449Z,1025.74
2019-03-29T09:23:50.836Z,1025.74
2019-03-29T09:24:52.238Z,1025.70
2019-03-29T09:25:53.636Z,1025.69
2019-03-29T09:26:55.028Z,1025.68
2019-03-29T09:27:56.418Z,1025.72
2019-03-29T09:28:57.814Z,1025.73
2019-03-29T09:29:59.203Z,1025.74
2019-03-29T09:31:00.589Z,1025.69
2019-03-29T09:32:01.997Z,1025.74
2019-03-29T09:33:03.386Z,1025.74
2019-03-29T09:34:04.743Z,1025.72
2019-03-29T09:35:06.136Z,1025.70
2019-03-29T09:36:07.533Z,1025.68
2019-03-29T09:37:08.985Z,1025.68
2019-03-29T09:38:10.287Z,1025.66
2019-03-29T09:39:11.675Z,1025.69
2019-03-29T09:40:14.066Z,1025.71
2019-03-29T09:41:14.446Z,1025.67
2019-03-29T09:42:28.308Z,1025.66
2019-03-29T09:43:17.290Z,1025.70
2019-03-29T09:44:18.687Z,1025.64
2019-03-29T09:45:20.083Z,1025.68
2019-03-29T09:46:21.474Z,1025.68
2019-03-29T09:47:22.877Z,1025.62
2019-03-29T09:48:24.260Z,1025.61
2019-03-29T09:49:25.668Z,1025.59
2019-03-29T09:50:27.059Z,1025.57
2019-03-29T09:51:28.450Z,1025.59
2019-03-29T09:52:29.860Z,1025.59
2019-03-29T09:53:31.249Z,1025.60
2019-03-29T09:54:32.646Z,1025.60
2019-03-29T09:55:34.042Z,1025.59
2019-03-29T09:56:39.139Z,1025.55
2019-03-29T09:57:37.654Z,1025.58
2019-03-29T09:58:38.141Z,1025.56
2019-03-29T09:59:39.539Z,1025.56
2019-03-29T10:00:40.938Z,1025.52
2019-03-29T10:01:42.335Z,1025.51
2019-03-29T10:02:43.732Z,1025.52
2019-03-29T10:03:45.136Z,1025.53
2019-03-29T10:04:46.528Z,1025.51
2019-03-29T10:05:47.923Z,1025.52
2019-03-29T10:06:49.326Z,1025.52
2019-03-29T10:07:50.719Z,1025.53
2019-03-29T10:08:53.337Z,1025.51
2019-03-29T10:09:53.494Z,1025.53
2019-03-29T10:10:54.892Z,1025.49
2019-03-29T10:11:56.292Z,1025.49
2019-03-29T10:12:57.685Z,1025.48
2019-03-29T10:13:59.092Z,1025.51
2019-03-29T10:15:00.483Z,1025.54
2019-03-29T10:16:01.876Z,1025.50
2019-03-29T10:17:03.296Z,1025.48
2019-03-29T10:18:04.672Z,1025.46
2019-03-29T10:19:06.067Z,1025.42
2019-03-29T10:20:07.461Z,1025.40
2019-03-29T10:21:08.858Z,1025.41
2019-03-29T10:22:10.248Z,1025.38
2019-03-29T10:23:11.654Z,1025.39
2019-03-29T10:24:13.041Z,1025.41
2019-03-29T10:25:19.638Z,1025.38
2019-03-29T10:26:15.805Z,1025.39
2019-03-29T10:27:18.961Z,1025.37
2019-03-29T10:28:18.556Z,1025.34
2019-03-29T10:29:19.951Z,1025.27
2019-03-29T10:30:21.350Z,1025.30
2019-03-29T10:31:32.018Z,1025.29
2019-03-29T10:32:24.110Z,1025.27
2019-03-29T10:33:25.530Z,1025.18
2019-03-29T10:34:26.926Z,1025.22
2019-03-29T10:35:28.348Z,1025.19
2019-03-29T10:36:29.738Z,1025.19
2019-03-29T10:37:31.139Z,1025.18
2019-03-29T10:38:32.524Z,1025.17
2019-03-29T10:39:35.616Z,1025.19
2019-03-29T10:40:35.279Z,1025.12
2019-03-29T10:41:38.037Z,1025.09
2019-03-29T10:42:40.129Z,1025.14
2019-03-29T10:43:39.391Z,1025.05
2019-03-29T10:44:40.792Z,1025.08
2019-03-29T10:45:42.188Z,1025.06
2019-03-29T10:46:43.590Z,1025.07
2019-03-29T10:47:45.019Z,1025.04
2019-03-29T10:48:46.440Z,1025.03
2019-03-29T10:49:47.938Z,1025.02
2019-03-29T10:50:49.212Z,1024.97
2019-03-29T10:51:50.604Z,1024.98
2019-03-29T10:52:52.025Z,1024.96
2019-03-29T10:53:53.419Z,1024.96
2019-03-29T10:54:54.816Z,1024.94
2019-03-29T10:55:56.245Z,1024.93
2019-03-29T10:56:57.635Z,1024.93
2019-03-29T10:57:59.076Z,1024.93
2019-03-29T10:59:00.461Z,1024.96
2019-03-29T11:00:01.876Z,1024.98
2019-03-29T11:01:03.257Z,1024.95
2019-03-29T11:02:04.670Z,1024.94
2019-03-29T11:03:06.089Z,1024.95
2019-03-29T11:04:07.496Z,1024.97
2019-03-29T11:05:08.907Z,1024.97
2019-03-29T11:06:10.304Z,1024.94
2019-03-29T11:07:11.703Z,1024.95
2019-03-29T11:08:13.129Z,1024.95
2019-03-29T11:09:14.548Z,1024.96
2019-03-29T11:10:15.974Z,1024.93
2019-03-29T11:11:17.382Z,1024.92
2019-03-29T11:12:18.809Z,1024.89
2019-03-29T11:13:20.216Z,1024.92
2019-03-29T11:14:21.626Z,1024.88
2019-03-29T11:15:23.028Z,1024.93
2019-03-29T11:16:24.426Z,1024.90
2019-03-29T11:17:25.838Z,1024.88
2019-03-29T11:18:27.238Z,1024.86
2019-03-29T11:19:28.643Z,1024.89
2019-03-29T11:20:30.053Z,1024.87
2019-03-29T11:21:31.455Z,1024.91
2019-03-29T11:22:32.851Z,1024.90
2019-03-29T11:23:34.242Z,1024.84
2019-03-29T11:24:35.721Z,1024.80
2019-03-29T11:25:37.051Z,1024.75
2019-03-29T11:26:38.436Z,1024.72
2019-03-29T11:27:39.841Z,1024.76
2019-03-29T11:28:41.728Z,1024.76
2019-03-29T11:29:43.127Z,1024.75
2019-03-29T11:30:44.524Z,1024.73
2019-03-29T11:31:45.955Z,1024.77
2019-03-29T11:32:47.363Z,1024.74
2019-03-29T11:33:48.803Z,1024.75
2019-03-29T11:34:50.237Z,1024.82
2019-03-29T11:35:51.641Z,1024.79
2019-03-29T11:36:53.097Z,1024.79
2019-03-29T11:37:54.461Z,1024.78
2019-03-29T11:38:55.850Z,1024.78
2019-03-29T11:39:57.280Z,1024.77
2019-03-29T11:40:58.684Z,1024.78
2019-03-29T11:42:03.189Z,1024.77
2019-03-29T11:43:01.435Z,1024.74
2019-03-29T11:44:02.831Z,1024.71
2019-03-29T11:45:04.233Z,1024.68
2019-03-29T11:46:05.617Z,1024.71
2019-03-29T11:47:07.020Z,1024.71
2019-03-29T11:48:09.422Z,1024.65
2019-03-29T11:49:09.740Z,1024.61
2019-03-29T11:50:11.136Z,1024.64
2019-03-29T11:51:19.388Z,1024.62
2019-03-29T11:52:13.891Z,1024.65
2019-03-29T11:53:15.322Z,1024.63
2019-03-29T11:54:16.710Z,1024.59
2019-03-29T11:55:18.134Z,1024.60
2019-03-29T11:56:19.533Z,1024.59
2019-03-29T11:57:20.949Z,1024.58
2019-03-29T11:58:22.341Z,1024.55
2019-03-29T11:59:23.737Z,1024.53
2019-03-29T12:00:25.133Z,1024.56
2019-03-29T12:01:26.556Z,1024.57
2019-03-29T12:02:31.495Z,1024.56
2019-03-29T12:03:29.377Z,1024.57
2019-03-29T12:04:30.802Z,1024.48
2019-03-29T12:05:35.960Z,1024.51
2019-03-29T12:06:34.134Z,1024.55
2019-03-29T12:07:35.619Z,1024.58
2019-03-29T12:08:37.058Z,1024.62
2019-03-29T12:09:38.486Z,1024.57
2019-03-29T12:10:39.892Z,1024.58
2019-03-29T12:11:41.302Z,1024.58
2019-03-29T12:12:42.706Z,1024.53
2019-03-29T12:13:44.129Z,1024.53
2019-03-29T12:14:45.527Z,1024.50
2019-03-29T12:15:46.939Z,1024.44
2019-03-29T12:16:48.345Z,1024.42
2019-03-29T12:17:49.749Z,1024.38
2019-03-29T12:18:51.162Z,1024.38
2019-03-29T12:19:52.577Z,1024.36
2019-03-29T12:20:54.420Z,1024.43
2019-03-29T12:21:55.337Z,1024.37
2019-03-29T12:22:56.737Z,1024.28